Archival Weather

Fukuoka

Fukuoka, Japan (RJFF)

Report from: Monday, August 15, 2022 11:30 PM JST
Current time: Sunday, February 25, 2024 1:43 AM JST

Current weather – Weather history – Daily summaries
Weather forecast

Temperature28.0°C (82.4°F)
Heat index33.5°C (92.3°F)
Dew point26.0°C (78.8°F)
Winds 11 kts (5.7 m/s, 12.7 mph) Southeast (140°)
Visibility6.2 mi. (10 km)
Clouds Few clouds 3,200 ft. (975 m)
Altimeter29.71 in.Hg (1006 mB)
Relative humidity89 %
Density altitude2,188 ft. (667 m)
Remarks Fully automated report
No significant changes expected in the next two hours
Flight conditions Visual Meteorological Conditions
Raw dataRJFF 151430Z AUTO 14011KT 9999 FEW032 28/26 Q1006 NOSIG
An error has occurred. This application may no longer respond until reloaded. Reload 🗙